Terminal Aerodrome Forecast
Issued by NWS

Home | Current Version | Previous Version | Text Only | Print | Product List | Glossary On
Versions: 1 2 3 4 5 6 7 8 9 10 11 12 13 14 15 16
000
FTUS45 KRIW 281100
TAFJAC
TAF
KJAC 281123Z 2812/2912 VRB04KT P6SM SKC
     FM281800 34007KT P6SM SCT080
     FM290100 32008KT P6SM VCSH BKN070
     FM290500 VRB05KT P6SM SCT070 SCT150
     FM290800 VRB04KT P6SM SKC
      AMD LTD TO CLD VIS AND WIND=

USA.gov is the U.S. government's official web portal to all federal, state and local government web resources and services.